createdAt,value
2022-08-02T00:00:14.800Z,5.70
2022-08-02T00:02:46.022Z,7.28
2022-08-02T00:05:14.367Z,6.68
2022-08-02T00:07:42.320Z,7.68
2022-08-02T00:10:11.443Z,6.10
2022-08-02T00:12:40.215Z,6.60
2022-08-02T00:15:08.686Z,7.95
2022-08-02T00:17:36.410Z,5.63
2022-08-02T00:20:04.781Z,5.05
2022-08-02T00:22:32.603Z,4.05
2022-08-02T00:25:00.229Z,4.60
2022-08-02T00:27:27.958Z,5.80
2022-08-02T00:29:55.844Z,5.05
2022-08-02T00:32:23.884Z,6.55
2022-08-02T00:34:51.737Z,5.50
2022-08-02T00:37:19.472Z,4.40
2022-08-02T00:39:47.138Z,4.97
2022-08-02T00:42:16.052Z,9.20
2022-08-02T00:44:43.671Z,5.22
2022-08-02T00:47:11.434Z,6.28
2022-08-02T00:49:46.851Z,5.15
2022-08-02T00:52:14.928Z,5.47
2022-08-02T00:54:42.827Z,5.45
2022-08-02T00:57:10.383Z,4.43
2022-08-02T00:59:38.042Z,5.25
2022-08-02T01:02:05.618Z,8.18
2022-08-02T01:04:33.254Z,6.03
2022-08-02T01:07:12.274Z,5.45
2022-08-02T01:09:45.424Z,8.95
2022-08-02T01:12:14.255Z,8.60
2022-08-02T01:14:44.500Z,7.40
2022-08-02T01:17:15.198Z,8.10
2022-08-02T01:20:01.468Z,7.03
2022-08-02T01:23:00.543Z,7.63
2022-08-02T01:25:45.235Z,9.27
2022-08-02T01:28:24.482Z,9.45
2022-08-02T01:30:56.599Z,6.63
2022-08-02T01:33:25.459Z,11.35
2022-08-02T01:35:56.568Z,9.43
2022-08-02T01:38:31.846Z,8.25
2022-08-02T01:40:59.780Z,7.68
2022-08-02T01:43:29.296Z,8.55
2022-08-02T01:45:57.344Z,11.18
2022-08-02T01:48:25.655Z,12.10
2022-08-02T01:50:54.273Z,10.98
2022-08-02T01:53:22.905Z,13.75
2022-08-02T01:55:58.410Z,13.68
2022-08-02T01:58:31.781Z,11.27
2022-08-02T02:01:00.459Z,11.90
2022-08-02T02:03:28.604Z,15.90
2022-08-02T02:05:57.584Z,13.05
2022-08-02T02:08:28.501Z,13.57
2022-08-02T02:10:57.422Z,17.38
2022-08-02T02:13:46.006Z,13.60
2022-08-02T02:16:15.388Z,13.63
2022-08-02T02:18:44.540Z,14.27
2022-08-02T02:21:14.308Z,18.52
2022-08-02T02:23:43.573Z,14.25
2022-08-02T02:26:13.317Z,14.43
2022-08-02T02:28:40.944Z,15.73
2022-08-02T02:31:09.840Z,18.45
2022-08-02T02:33:40.854Z,17.83
2022-08-02T02:36:09.731Z,18.55
2022-08-02T02:38:37.714Z,19.98
2022-08-02T02:41:06.759Z,21.27
2022-08-02T02:43:35.153Z,19.80
2022-08-02T02:46:04.395Z,21.80
2022-08-02T02:48:32.204Z,22.08
2022-08-02T02:51:01.396Z,18.55
2022-08-02T02:53:29.397Z,18.98
2022-08-02T02:56:17.958Z,20.80
2022-08-02T02:58:46.421Z,18.75
2022-08-02T03:01:55.202Z,19.55
2022-08-02T03:04:21.578Z,21.25
2022-08-02T03:06:49.347Z,18.58
2022-08-02T03:09:16.857Z,17.98
2022-08-02T03:11:44.474Z,19.80
2022-08-02T03:14:14.005Z,19.92
2022-08-02T03:16:46.149Z,21.50
2022-08-02T03:19:14.634Z,22.20
2022-08-02T03:21:43.195Z,21.23
2022-08-02T03:24:11.222Z,20.85
2022-08-02T03:26:38.955Z,23.55
2022-08-02T03:29:10.266Z,18.85
2022-08-02T03:31:41.098Z,22.90
2022-08-02T03:34:08.784Z,19.00
2022-08-02T03:36:37.169Z,18.92
2022-08-02T03:39:05.452Z,20.38
2022-08-02T03:41:34.044Z,22.98
2022-08-02T03:44:02.207Z,26.15
2022-08-02T03:46:30.158Z,20.70
2022-08-02T03:48:58.273Z,22.83
2022-08-02T03:51:25.889Z,22.92
2022-08-02T03:53:53.811Z,20.25
2022-08-02T03:56:23.424Z,20.33
2022-08-02T03:58:51.148Z,20.00
2022-08-02T04:01:18.895Z,22.27
2022-08-02T04:03:46.556Z,24.27
2022-08-02T04:06:14.055Z,20.15
2022-08-02T04:08:43.449Z,19.50
2022-08-02T04:11:29.739Z,22.45
2022-08-02T04:13:57.864Z,22.55
2022-08-02T04:16:30.248Z,23.45
2022-08-02T04:18:59.138Z,22.70
2022-08-02T04:21:49.068Z,20.83
2022-08-02T04:24:18.698Z,20.88
2022-08-02T04:26:48.135Z,20.05
2022-08-02T04:29:17.921Z,20.52
2022-08-02T04:31:45.976Z,22.35
2022-08-02T04:34:15.446Z,22.85
2022-08-02T04:36:43.552Z,22.48
2022-08-02T04:39:11.187Z,21.88
2022-08-02T04:41:41.078Z,21.05
2022-08-02T04:44:12.037Z,21.15
2022-08-02T04:46:40.195Z,22.25
2022-08-02T04:49:08.308Z,22.13
2022-08-02T04:51:40.044Z,20.23
2022-08-02T04:54:09.979Z,18.50
2022-08-02T04:56:38.827Z,22.42
2022-08-02T04:59:07.233Z,21.70
2022-08-02T05:01:39.452Z,21.70
2022-08-02T05:04:07.274Z,24.42
2022-08-02T05:06:34.798Z,25.75
2022-08-02T05:09:02.331Z,21.58
2022-08-02T05:11:35.896Z,21.40
2022-08-02T05:16:32.438Z,22.83
2022-08-02T05:19:00.884Z,26.77
2022-08-02T05:21:28.776Z,22.45
2022-08-02T05:23:56.268Z,22.17
2022-08-02T05:26:23.801Z,20.25
2022-08-02T05:28:51.372Z,22.35
2022-08-02T05:31:18.919Z,23.23
2022-08-02T05:33:46.615Z,19.58
2022-08-02T05:36:14.314Z,21.45
2022-08-02T05:38:44.358Z,17.98
2022-08-02T05:41:19.486Z,19.65
2022-08-02T05:43:47.780Z,18.63
2022-08-02T05:46:15.496Z,17.70
2022-08-02T05:48:45.087Z,18.70
2022-08-02T05:51:13.474Z,17.15
2022-08-02T05:53:47.597Z,17.98
2022-08-02T05:56:19.130Z,18.90
2022-08-02T05:58:46.936Z,15.77
2022-08-02T06:01:16.750Z,15.13
2022-08-02T06:03:51.598Z,17.20
2022-08-02T06:06:23.452Z,16.83
2022-08-02T06:09:01.270Z,14.02
2022-08-02T06:11:35.786Z,16.77
2022-08-02T06:14:07.170Z,15.25
2022-08-02T06:16:42.238Z,13.13
2022-08-02T06:19:12.533Z,17.48
2022-08-02T06:22:29.704Z,16.42
2022-08-02T06:24:30.531Z,14.40
2022-08-02T06:26:58.468Z,13.57
2022-08-02T06:29:26.899Z,12.15
2022-08-02T06:31:54.556Z,10.50
2022-08-02T06:34:22.354Z,12.98
2022-08-02T06:37:21.554Z,14.48
2022-08-02T06:39:51.899Z,12.18
2022-08-02T06:42:49.510Z,12.18
2022-08-02T06:45:17.551Z,11.40
2022-08-02T06:47:45.067Z,13.98
2022-08-02T06:50:12.665Z,12.00
2022-08-02T06:52:39.851Z,13.15
2022-08-02T06:55:07.615Z,13.35
2022-08-02T06:57:35.191Z,10.50
2022-08-02T07:00:06.996Z,14.30
2022-08-02T07:02:38.269Z,11.80
2022-08-02T07:05:07.123Z,11.75
2022-08-02T07:07:34.537Z,15.95
2022-08-02T07:10:02.033Z,9.63
2022-08-02T07:12:33.361Z,12.90
2022-08-02T07:15:02.550Z,15.70
2022-08-02T07:17:30.049Z,12.73
2022-08-02T07:19:57.959Z,11.82
2022-08-02T07:22:27.132Z,12.05
2022-08-02T07:24:58.941Z,11.68
2022-08-02T07:27:26.837Z,12.55
2022-08-02T07:29:53.995Z,13.00
2022-08-02T07:32:24.255Z,10.43
2022-08-02T07:34:54.213Z,13.43
2022-08-02T07:37:53.095Z,11.43
2022-08-02T07:40:20.414Z,9.18
2022-08-02T07:42:54.528Z,10.32
2022-08-02T07:45:24.560Z,12.70
2022-08-02T07:47:52.716Z,14.57
2022-08-02T07:50:21.227Z,11.38
2022-08-02T07:52:48.511Z,13.80
2022-08-02T07:55:17.822Z,12.45
2022-08-02T07:57:46.958Z,11.80
2022-08-02T08:00:18.850Z,9.63
2022-08-02T08:02:47.284Z,10.40
2022-08-02T08:05:14.532Z,11.52
2022-08-02T08:07:41.671Z,10.02
2022-08-02T08:10:10.015Z,12.32
2022-08-02T08:12:37.332Z,9.77
2022-08-02T08:15:05.434Z,11.90
2022-08-02T08:17:32.945Z,10.52
2022-08-02T08:20:00.993Z,7.60
2022-08-02T08:22:28.193Z,8.50
2022-08-02T08:24:55.486Z,12.27
2022-08-02T08:27:23.149Z,11.48
2022-08-02T08:29:50.417Z,8.50
2022-08-02T08:32:18.622Z,10.13
2022-08-02T08:34:47.142Z,7.20
2022-08-02T08:37:16.552Z,8.00
2022-08-02T08:39:56.159Z,10.48
2022-08-02T08:42:28.151Z,6.90
2022-08-02T08:44:57.367Z,9.55
2022-08-02T08:47:35.717Z,6.78
2022-08-02T08:50:14.789Z,5.78
2022-08-02T08:53:01.981Z,7.82
2022-08-02T08:55:30.429Z,8.50
2022-08-02T08:57:59.990Z,6.47
2022-08-02T09:00:27.748Z,5.25
2022-08-02T09:02:55.310Z,6.60
2022-08-02T09:05:23.144Z,6.30
2022-08-02T09:07:51.930Z,7.43
2022-08-02T09:10:42.224Z,6.35
2022-08-02T09:13:31.208Z,5.43
2022-08-02T09:16:12.731Z,7.47
2022-08-02T09:18:46.701Z,6.75
2022-08-02T09:21:16.454Z,5.97
2022-08-02T09:23:46.391Z,6.32
2022-08-02T09:26:19.124Z,5.72
2022-08-02T09:28:52.704Z,5.38
2022-08-02T09:31:22.349Z,4.68
2022-08-02T09:33:55.163Z,5.78
2022-08-02T09:36:23.308Z,6.60
2022-08-02T09:39:01.567Z,6.10
2022-08-02T09:41:30.645Z,6.40
2022-08-02T09:44:04.639Z,7.43
2022-08-02T09:46:44.550Z,4.10
2022-08-02T09:49:14.281Z,5.30
2022-08-02T09:51:51.597Z,4.90
2022-08-02T09:54:25.653Z,6.10
2022-08-02T09:57:01.759Z,8.35
2022-08-02T09:59:29.911Z,6.32
2022-08-02T10:02:02.365Z,6.43
2022-08-02T10:04:34.252Z,5.00
2022-08-02T10:07:06.299Z,4.50
2022-08-02T10:09:34.449Z,6.43
2022-08-02T10:12:08.544Z,6.15
2022-08-02T10:14:36.372Z,4.07
2022-08-02T10:17:05.231Z,5.65
2022-08-02T10:20:00.295Z,8.07
2022-08-02T10:22:20.712Z,4.05
2022-08-02T10:24:49.313Z,7.05
2022-08-02T10:27:20.256Z,4.30
2022-08-02T10:29:55.098Z,3.72
2022-08-02T10:32:39.033Z,6.05
2022-08-02T10:35:24.933Z,9.45
2022-08-02T10:38:03.825Z,10.38
2022-08-02T10:40:47.884Z,8.73
2022-08-02T10:43:47.406Z,9.07
2022-08-02T10:46:40.955Z,9.18
2022-08-02T10:52:02.360Z,8.25
2022-08-02T10:54:35.035Z,8.55
2022-08-02T10:57:03.720Z,8.20
2022-08-02T10:59:36.584Z,8.52
2022-08-02T11:02:06.433Z,9.35
2022-08-02T11:04:33.543Z,7.95
2022-08-02T11:07:18.278Z,11.80
2022-08-02T11:09:50.063Z,6.63
2022-08-02T11:12:19.663Z,9.40
2022-08-02T11:15:08.116Z,6.85
2022-08-02T11:17:55.874Z,9.95
2022-08-02T11:20:24.453Z,9.70
2022-08-02T11:22:53.607Z,8.40
2022-08-02T11:25:24.077Z,8.88
2022-08-02T11:27:53.127Z,8.63
2022-08-02T11:30:26.736Z,8.98
2022-08-02T11:32:58.862Z,10.45
2022-08-02T11:35:37.186Z,10.93
2022-08-02T11:38:19.915Z,9.00
2022-08-02T11:40:48.802Z,6.38
2022-08-02T11:43:17.585Z,10.05
2022-08-02T11:45:45.386Z,7.32
2022-08-02T11:48:12.890Z,7.40
2022-08-02T11:50:41.169Z,10.48
2022-08-02T11:53:16.503Z,8.18
2022-08-02T11:55:43.788Z,6.13
2022-08-02T11:58:11.786Z,9.60
2022-08-02T12:00:39.340Z,11.57
2022-08-02T12:03:08.048Z,7.55
2022-08-02T12:08:25.685Z,10.35
2022-08-02T12:10:52.954Z,10.02
2022-08-02T12:13:20.235Z,8.95
2022-08-02T12:15:47.745Z,9.38
2022-08-02T12:18:39.257Z,12.88
2022-08-02T12:21:25.267Z,6.40
2022-08-02T12:24:00.871Z,8.07
2022-08-02T12:26:29.994Z,7.70
2022-08-02T12:28:59.526Z,5.68
2022-08-02T12:31:55.903Z,9.98
2022-08-02T12:34:31.759Z,13.70
2022-08-02T12:37:02.710Z,9.90
2022-08-02T12:39:38.657Z,10.32
2022-08-02T12:42:08.111Z,11.13
2022-08-02T12:44:38.586Z,9.00
2022-08-02T12:47:09.899Z,9.45
2022-08-02T12:49:37.235Z,7.72
2022-08-02T12:52:24.859Z,7.68
2022-08-02T12:54:51.965Z,9.70
2022-08-02T12:57:19.808Z,8.02
2022-08-02T12:59:53.260Z,12.18
2022-08-02T13:02:21.516Z,8.05
2022-08-02T13:04:50.670Z,7.45
2022-08-02T13:07:19.524Z,10.40
2022-08-02T13:09:48.427Z,8.65
2022-08-02T13:12:16.326Z,8.02
2022-08-02T13:14:43.801Z,6.53
2022-08-02T13:17:12.181Z,7.72
2022-08-02T13:19:40.852Z,8.52
2022-08-02T13:22:08.509Z,7.95
2022-08-02T13:24:55.732Z,8.32
2022-08-02T13:27:26.053Z,8.38
2022-08-02T13:29:54.894Z,12.75
2022-08-02T13:32:22.867Z,9.02
2022-08-02T13:34:50.503Z,8.95
2022-08-02T13:37:18.306Z,7.40
2022-08-02T13:40:00.108Z,9.55
2022-08-02T13:42:33.493Z,11.38
2022-08-02T13:45:00.654Z,8.02
2022-08-02T13:48:03.528Z,7.18
2022-08-02T13:50:27.776Z,12.55
2022-08-02T13:52:56.118Z,7.47
2022-08-02T13:55:23.231Z,6.78
2022-08-02T13:57:53.378Z,10.45
2022-08-02T14:00:35.128Z,10.30
2022-08-02T14:03:05.891Z,6.03
2022-08-02T14:05:46.040Z,14.18
2022-08-02T14:08:22.461Z,9.55
2022-08-02T14:10:51.435Z,7.55
2022-08-02T14:13:19.296Z,9.32
2022-08-02T14:15:47.166Z,8.27
2022-08-02T14:18:15.477Z,11.25
2022-08-02T14:20:44.618Z,7.22
2022-08-02T14:23:12.111Z,12.48
2022-08-02T14:25:39.636Z,13.70
2022-08-02T14:28:07.480Z,11.38
2022-08-02T14:30:35.385Z,11.15
2022-08-02T14:33:04.183Z,11.30
2022-08-02T14:35:31.387Z,12.75
2022-08-02T14:37:58.848Z,11.77
2022-08-02T14:40:28.187Z,11.90
2022-08-02T14:43:00.004Z,12.55
2022-08-02T14:45:40.992Z,10.25
2022-08-02T14:48:12.591Z,10.82
2022-08-02T14:50:40.065Z,9.85
2022-08-02T14:53:12.608Z,11.85
2022-08-02T14:55:41.035Z,10.10
2022-08-02T14:58:08.446Z,11.73
2022-08-02T15:00:40.088Z,9.63
2022-08-02T15:03:09.119Z,10.60
2022-08-02T15:05:36.563Z,11.60
2022-08-02T15:08:03.958Z,11.45
2022-08-02T15:10:31.314Z,9.73
2022-08-02T15:12:58.499Z,11.60
2022-08-02T15:15:26.169Z,10.18
2022-08-02T15:17:53.872Z,10.23
2022-08-02T15:20:25.237Z,10.95
2022-08-02T15:22:53.855Z,9.88
2022-08-02T15:25:21.791Z,12.18
2022-08-02T15:27:49.372Z,10.98
2022-08-02T15:30:16.952Z,15.85
2022-08-02T15:32:53.439Z,14.38
2022-08-02T15:35:21.496Z,11.38
2022-08-02T15:37:48.845Z,11.55
2022-08-02T15:40:16.025Z,12.95
2022-08-02T15:42:46.348Z,14.50
2022-08-02T15:45:15.839Z,11.23
2022-08-02T15:47:48.300Z,13.77
2022-08-02T15:50:18.646Z,10.98
2022-08-02T15:53:18.035Z,12.93
2022-08-02T15:56:04.095Z,12.20
2022-08-02T15:58:32.779Z,13.80
2022-08-02T16:01:00.069Z,14.95
2022-08-02T16:03:27.310Z,12.30
2022-08-02T16:05:54.393Z,11.98
2022-08-02T16:08:21.510Z,13.00
2022-08-02T16:10:48.586Z,12.90
2022-08-02T16:13:37.270Z,8.80
2022-08-02T16:16:06.802Z,16.10
2022-08-02T16:18:34.065Z,10.32
2022-08-02T16:21:01.176Z,13.32
2022-08-02T16:23:59.544Z,17.73
2022-08-02T16:26:15.589Z,12.85
2022-08-02T16:28:42.797Z,12.70
2022-08-02T16:31:11.763Z,12.88
2022-08-02T16:33:39.160Z,13.55
2022-08-02T16:36:06.344Z,13.35
2022-08-02T16:38:33.516Z,13.27
2022-08-02T16:41:01.753Z,12.50
2022-08-02T16:43:29.012Z,13.57
2022-08-02T16:45:56.810Z,10.50
2022-08-02T16:48:23.999Z,10.05
2022-08-02T16:50:51.368Z,12.63
2022-08-02T16:53:36.723Z,13.95
2022-08-02T16:56:06.675Z,11.20
2022-08-02T16:58:33.866Z,14.52
2022-08-02T17:01:01.143Z,10.57
2022-08-02T17:03:33.569Z,17.27
2022-08-02T17:06:16.357Z,12.13
2022-08-02T17:08:54.660Z,11.43
2022-08-02T17:11:31.064Z,9.68
2022-08-02T17:13:58.433Z,11.25
2022-08-02T17:16:26.723Z,11.80
2022-08-02T17:18:55.068Z,9.98
2022-08-02T17:21:22.378Z,10.88
2022-08-02T17:24:07.602Z,11.23
2022-08-02T17:26:37.046Z,10.38
2022-08-02T17:29:14.241Z,12.15
2022-08-02T17:32:01.600Z,13.02
2022-08-02T17:34:34.556Z,12.00
2022-08-02T17:37:01.846Z,10.52
2022-08-02T17:39:34.577Z,9.15
2022-08-02T17:42:19.667Z,12.60
2022-08-02T17:44:49.326Z,9.90
2022-08-02T17:47:17.920Z,12.13
2022-08-02T17:49:48.575Z,10.88
2022-08-02T17:52:50.761Z,11.27
2022-08-02T17:55:05.679Z,12.23
2022-08-02T17:57:57.599Z,8.13
2022-08-02T18:00:20.576Z,9.02
2022-08-02T18:02:54.935Z,11.18
2022-08-02T18:05:36.220Z,9.73
2022-08-02T18:08:07.747Z,10.50
2022-08-02T18:10:35.095Z,8.60
2022-08-02T18:13:03.840Z,8.43
2022-08-02T18:15:32.356Z,10.43
2022-08-02T18:18:00.686Z,7.28
2022-08-02T18:20:27.770Z,6.95
2022-08-02T18:22:55.610Z,6.88
2022-08-02T18:25:37.342Z,5.93
2022-08-02T18:28:11.434Z,8.10
2022-08-02T18:30:39.035Z,7.78
2022-08-02T18:33:57.103Z,10.82
2022-08-02T18:35:55.213Z,9.05
2022-08-02T18:38:26.936Z,6.65
2022-08-02T18:40:55.824Z,6.88
2022-08-02T18:43:25.321Z,6.88
2022-08-02T18:46:05.801Z,9.75
2022-08-02T18:48:46.952Z,8.52
2022-08-02T18:51:16.552Z,7.82
2022-08-02T18:53:51.007Z,8.07
2022-08-02T18:56:24.750Z,10.30
2022-08-02T18:58:56.230Z,4.78
2022-08-02T19:01:33.592Z,7.85
2022-08-02T19:04:04.456Z,8.10
2022-08-02T19:06:31.835Z,7.93
2022-08-02T19:09:10.439Z,8.02
2022-08-02T19:11:48.057Z,7.82
2022-08-02T19:14:24.106Z,7.45
2022-08-02T19:16:59.492Z,8.10
2022-08-02T19:19:29.024Z,8.70
2022-08-02T19:22:17.319Z,10.63
2022-08-02T19:24:46.469Z,10.57
2022-08-02T19:27:14.884Z,7.63
2022-08-02T19:29:48.888Z,9.65
2022-08-02T19:32:40.174Z,9.18
2022-08-02T19:35:19.556Z,11.10
2022-08-02T19:37:59.247Z,9.73
2022-08-02T19:40:29.131Z,9.88
2022-08-02T19:44:23.831Z,10.40
2022-08-02T19:45:51.052Z,9.07
2022-08-02T19:50:56.178Z,8.02
2022-08-02T19:53:28.813Z,11.35
2022-08-02T19:56:13.249Z,10.57
2022-08-02T19:58:51.405Z,11.23
2022-08-02T20:01:25.371Z,12.07
2022-08-02T20:03:55.578Z,10.82
2022-08-02T20:06:29.426Z,11.57
2022-08-02T20:08:59.203Z,9.35
2022-08-02T20:11:34.851Z,9.15
2022-08-02T20:14:07.106Z,7.55
2022-08-02T20:16:35.493Z,9.48
2022-08-02T20:19:03.994Z,11.00
2022-08-02T20:21:35.573Z,8.05
2022-08-02T20:24:09.225Z,7.47
2022-08-02T20:26:47.735Z,8.02
2022-08-02T20:29:42.554Z,7.55
2022-08-02T20:32:05.792Z,7.90
2022-08-02T20:34:36.378Z,9.90
2022-08-02T20:38:01.283Z,8.02
2022-08-02T20:39:52.937Z,7.20
2022-08-02T20:42:23.626Z,8.85
2022-08-02T20:44:55.512Z,10.50
2022-08-02T20:47:27.822Z,5.85
2022-08-02T20:50:30.370Z,10.50
2022-08-02T20:53:04.182Z,10.55
2022-08-02T20:55:32.306Z,7.68
2022-08-02T20:58:02.198Z,9.90
2022-08-02T21:00:31.800Z,10.27
2022-08-02T21:03:00.347Z,10.20
2022-08-02T21:05:54.004Z,6.55
2022-08-02T21:08:15.466Z,10.95
2022-08-02T21:10:43.983Z,9.43
2022-08-02T21:13:25.959Z,7.15
2022-08-02T21:15:56.165Z,7.88
2022-08-02T21:18:38.522Z,11.38
2022-08-02T21:21:10.139Z,9.10
2022-08-02T21:23:38.489Z,6.45
2022-08-02T21:26:16.244Z,10.68
2022-08-02T21:28:53.393Z,8.82
2022-08-02T21:31:20.669Z,4.63
2022-08-02T21:33:58.517Z,7.45
2022-08-02T21:36:32.711Z,8.73
2022-08-02T21:39:18.455Z,4.00
2022-08-02T21:41:47.224Z,7.82
2022-08-02T21:44:16.319Z,8.73
2022-08-02T21:46:49.838Z,8.63
2022-08-02T21:49:18.705Z,5.53
2022-08-02T21:51:49.464Z,6.68
2022-08-02T21:54:20.320Z,7.18
2022-08-02T21:56:53.353Z,7.95
2022-08-02T21:59:26.060Z,5.32
2022-08-02T22:01:56.695Z,6.10
2022-08-02T22:04:25.723Z,6.57
2022-08-02T22:06:54.879Z,3.78
2022-08-02T22:09:43.917Z,7.88
2022-08-02T22:12:16.469Z,12.43
2022-08-02T22:15:00.516Z,6.20
2022-08-02T22:17:53.672Z,7.63
2022-08-02T22:20:19.641Z,6.95
2022-08-02T22:22:50.757Z,5.47
2022-08-02T22:25:26.927Z,6.03
2022-08-02T22:28:38.756Z,7.47
2022-08-02T22:30:55.352Z,5.25
2022-08-02T22:33:47.294Z,4.90
2022-08-02T22:36:33.599Z,9.10
2022-08-02T22:39:01.965Z,5.57
2022-08-02T22:42:01.235Z,8.27
2022-08-02T22:44:18.599Z,7.22
2022-08-02T22:46:46.730Z,5.03
2022-08-02T22:49:36.837Z,7.85
2022-08-02T22:52:04.633Z,9.50
2022-08-02T22:54:32.753Z,6.82
2022-08-02T22:56:59.926Z,9.50
2022-08-02T22:59:39.143Z,5.15
2022-08-02T23:02:07.863Z,7.20
2022-08-02T23:04:36.595Z,5.30
2022-08-02T23:07:04.700Z,6.78
2022-08-02T23:09:31.955Z,7.88
2022-08-02T23:11:59.500Z,5.50
2022-08-02T23:14:26.742Z,6.30
2022-08-02T23:17:12.666Z,6.15
2022-08-02T23:19:51.936Z,7.18
2022-08-02T23:22:29.944Z,6.50
2022-08-02T23:25:00.778Z,7.53
2022-08-02T23:27:29.011Z,6.72
2022-08-02T23:29:56.381Z,10.00
2022-08-02T23:32:25.843Z,7.25
2022-08-02T23:34:57.167Z,9.38
2022-08-02T23:37:25.115Z,7.13
2022-08-02T23:39:52.357Z,5.68
2022-08-02T23:42:19.673Z,7.53
2022-08-02T23:44:46.932Z,6.72
2022-08-02T23:47:14.194Z,5.75
2022-08-02T23:49:41.625Z,9.70
2022-08-02T23:52:08.869Z,5.65
2022-08-02T23:54:36.152Z,8.13
2022-08-02T23:57:20.905Z,8.60
2022-08-02T23:59:50.532Z,11.80
